Time;durP1;ratioP1;P1;durP2;ratioP2;P2;SDS_P1;SDS_P2;PMS_P1;PMS_P2;Temp;Humidity;BMP_temperature;BMP_pressure;BME280_temperature;BME280_humidity;BME280_pressure;Samples;Min_cycle;Max_cycle;Signal;HPM_P1;HPM_P2
2022/07/09 00:00:46;;;;;;;4.1;2.299999;;;;;;;11.44;65.51367;96415.5;;;;
2022/07/09 00:01:47;;;;;;;4.1;2.299999;;;;;;;11.44;65.51367;96415.5;;;;
2022/07/09 00:02:47;;;;;;;4.1;2.299999;;;;;;;11.44;65.51367;96415.5;;;;
2022/07/09 00:03:48;;;;;;;4.1;2.299999;;;;;;;11.44;65.51367;96415.5;;;;
2022/07/09 00:04:48;;;;;;;4.1;2.299999;;;;;;;11.44;65.51367;96415.5;;;;
2022/07/09 00:05:48;;;;;;;4.1;2.299999;;;;;;;11.44;65.51367;96415.5;;;;
2022/07/09 00:06:49;;;;;;;4.1;2.299999;;;;;;;11.44;65.51367;96415.5;;;;
2022/07/09 00:07:50;;;;;;;4.1;2.299999;;;;;;;11.44;65.51367;96415.5;;;;
2022/07/09 00:08:50;;;;;;;4.1;2.299999;;;;;;;11.44;65.51367;96415.5;;;;
2022/07/09 00:09:51;;;;;;;4.1;2.299999;;;;;;;11.44;65.51367;96415.5;;;;
2022/07/09 00:10:52;;;;;;;4.2;2.7;;;;;;;11.47;65.7002;96403.7;;;;
2022/07/09 00:11:52;;;;;;;4.2;2.7;;;;;;;11.47;65.7002;96403.7;;;;
2022/07/09 00:12:53;;;;;;;4.2;2.7;;;;;;;11.47;65.7002;96403.7;;;;
2022/07/09 00:13:53;;;;;;;4.2;2.7;;;;;;;11.47;65.7002;96403.7;;;;
2022/07/09 00:14:54;;;;;;;4.2;2.7;;;;;;;11.47;65.7002;96403.7;;;;
2022/07/09 00:15:54;;;;;;;4.2;2.7;;;;;;;11.47;65.7002;96403.7;;;;
2022/07/09 00:16:55;;;;;;;4.2;2.7;;;;;;;11.47;65.7002;96403.7;;;;
2022/07/09 00:17:55;;;;;;;4.2;2.7;;;;;;;11.47;65.7002;96403.7;;;;
2022/07/09 00:18:56;;;;;;;4.2;2.7;;;;;;;11.47;65.7002;96403.7;;;;
2022/07/09 00:19:56;;;;;;;4.2;2.7;;;;;;;11.47;65.7002;96403.7;;;;
2022/07/09 00:20:57;;;;;;;4.2;2.7;;;;;;;11.47;65.7002;96403.7;;;;
2022/07/09 00:21:58;;;;;;;4;2.95;;;;;;;11.58;65.75098;96394.75;;;;
2022/07/09 00:22:58;;;;;;;4;2.95;;;;;;;11.58;65.75098;96394.75;;;;
2022/07/09 00:23:59;;;;;;;4;2.95;;;;;;;11.58;65.75098;96394.75;;;;
2022/07/09 00:24:59;;;;;;;4;2.95;;;;;;;11.58;65.75098;96394.75;;;;
2022/07/09 00:26:00;;;;;;;4;2.95;;;;;;;11.58;65.75098;96394.75;;;;
2022/07/09 00:27:01;;;;;;;4;2.95;;;;;;;11.58;65.75098;96394.75;;;;
2022/07/09 00:28:02;;;;;;;4;2.95;;;;;;;11.58;65.75098;96394.75;;;;
2022/07/09 00:29:02;;;;;;;4;2.95;;;;;;;11.58;65.75098;96394.75;;;;
2022/07/09 00:30:03;;;;;;;4;2.95;;;;;;;11.58;65.75098;96394.75;;;;
2022/07/09 00:31:04;;;;;;;4;2.95;;;;;;;11.58;65.75098;96394.75;;;;
2022/07/09 00:32:05;;;;;;;4;2.95;;;;;;;11.58;65.75098;96394.75;;;;
2022/07/09 00:33:06;;;;;;;4.350001;2.7;;;;;;;11.62;65.89746;96387.25;;;;
2022/07/09 00:34:07;;;;;;;4.350001;2.7;;;;;;;11.62;65.89746;96387.25;;;;
2022/07/09 00:35:07;;;;;;;4.350001;2.7;;;;;;;11.62;65.89746;96387.25;;;;
2022/07/09 00:36:08;;;;;;;4.350001;2.7;;;;;;;11.62;65.89746;96387.25;;;;
2022/07/09 00:37:09;;;;;;;4.350001;2.7;;;;;;;11.62;65.89746;96387.25;;;;
2022/07/09 00:38:09;;;;;;;4.350001;2.7;;;;;;;11.62;65.89746;96387.25;;;;
2022/07/09 00:39:10;;;;;;;4.350001;2.7;;;;;;;11.62;65.89746;96387.25;;;;
2022/07/09 00:40:10;;;;;;;4.350001;2.7;;;;;;;11.62;65.89746;96387.25;;;;
2022/07/09 00:41:11;;;;;;;4.350001;2.7;;;;;;;11.62;65.89746;96387.25;;;;
2022/07/09 00:42:12;;;;;;;4.350001;2.7;;;;;;;11.62;65.89746;96387.25;;;;
2022/07/09 00:43:12;;;;;;;5.5;2.65;;;;;;;11.65;66.10645;96366.11;;;;
2022/07/09 00:44:17;;;;;;;5.5;2.65;;;;;;;11.65;66.10645;96366.11;;;;
2022/07/09 00:45:17;;;;;;;5.5;2.65;;;;;;;11.65;66.10645;96366.11;;;;
2022/07/09 00:46:18;;;;;;;5.5;2.65;;;;;;;11.65;66.10645;96366.11;;;;
2022/07/09 00:47:19;;;;;;;5.5;2.65;;;;;;;11.65;66.10645;96366.11;;;;
2022/07/09 00:48:19;;;;;;;5.5;2.65;;;;;;;11.65;66.10645;96366.11;;;;
2022/07/09 00:49:20;;;;;;;5.5;2.65;;;;;;;11.65;66.10645;96366.11;;;;
2022/07/09 00:50:21;;;;;;;5.5;2.65;;;;;;;11.65;66.10645;96366.11;;;;
2022/07/09 00:51:22;;;;;;;5.5;2.65;;;;;;;11.65;66.10645;96366.11;;;;
2022/07/09 00:52:22;;;;;;;5.5;2.65;;;;;;;11.65;66.10645;96366.11;;;;
2022/07/09 00:53:24;;;;;;;5.5;2.65;;;;;;;11.65;66.10645;96366.11;;;;
2022/07/09 00:54:25;;;;;;;3.7;2.7;;;;;;;11.52;66.42188;96368.63;;;;
2022/07/09 00:55:26;;;;;;;3.7;2.7;;;;;;;11.52;66.42188;96368.63;;;;
2022/07/09 00:56:27;;;;;;;3.7;2.7;;;;;;;11.52;66.42188;96368.63;;;;
2022/07/09 00:57:29;;;;;;;3.7;2.7;;;;;;;11.52;66.42188;96368.63;;;;
2022/07/09 00:58:31;;;;;;;3.7;2.7;;;;;;;11.52;66.42188;96368.63;;;;
2022/07/09 00:59:33;;;;;;;3.7;2.7;;;;;;;11.52;66.42188;96368.63;;;;
2022/07/09 01:00:35;;;;;;;3.7;2.7;;;;;;;11.52;66.42188;96368.63;;;;
2022/07/09 01:01:35;;;;;;;3.7;2.7;;;;;;;11.52;66.42188;96368.63;;;;
2022/07/09 01:02:36;;;;;;;3.7;2.7;;;;;;;11.52;66.42188;96368.63;;;;
2022/07/09 01:03:37;;;;;;;3.7;2.7;;;;;;;11.52;66.42188;96368.63;;;;
2022/07/09 01:04:39;;;;;;;3.5;2.85;;;;;;;11.42;66.72168;96367.63;;;;
2022/07/09 01:05:40;;;;;;;3.5;2.85;;;;;;;11.42;66.72168;96367.63;;;;
2022/07/09 01:06:40;;;;;;;3.5;2.85;;;;;;;11.42;66.72168;96367.63;;;;
2022/07/09 01:07:41;;;;;;;3.5;2.85;;;;;;;11.42;66.72168;96367.63;;;;
2022/07/09 01:08:41;;;;;;;3.5;2.85;;;;;;;11.42;66.72168;96367.63;;;;
2022/07/09 01:09:42;;;;;;;3.5;2.85;;;;;;;11.42;66.72168;96367.63;;;;
2022/07/09 01:10:42;;;;;;;3.5;2.85;;;;;;;11.42;66.72168;96367.63;;;;
2022/07/09 01:11:43;;;;;;;3.5;2.85;;;;;;;11.42;66.72168;96367.63;;;;
2022/07/09 01:12:44;;;;;;;3.5;2.85;;;;;;;11.42;66.72168;96367.63;;;;
2022/07/09 01:13:45;;;;;;;3.5;2.85;;;;;;;11.42;66.72168;96367.63;;;;
2022/07/09 01:14:45;;;;;;;3.5;2.85;;;;;;;11.42;66.72168;96367.63;;;;
2022/07/09 01:15:46;;;;;;;4.5;2.95;;;;;;;11.25;67.0625;96363.58;;;;
2022/07/09 01:16:46;;;;;;;4.5;2.95;;;;;;;11.25;67.0625;96363.58;;;;
2022/07/09 01:17:47;;;;;;;4.5;2.95;;;;;;;11.25;67.0625;96363.58;;;;
2022/07/09 01:18:47;;;;;;;4.5;2.95;;;;;;;11.25;67.0625;96363.58;;;;
2022/07/09 01:19:48;;;;;;;4.5;2.95;;;;;;;11.25;67.0625;96363.58;;;;
2022/07/09 01:20:48;;;;;;;4.5;2.95;;;;;;;11.25;67.0625;96363.58;;;;
2022/07/09 01:21:50;;;;;;;4.5;2.95;;;;;;;11.25;67.0625;96363.58;;;;
2022/07/09 01:22:50;;;;;;;4.5;2.95;;;;;;;11.25;67.0625;96363.58;;;;
2022/07/09 01:23:51;;;;;;;4.5;2.95;;;;;;;11.25;67.0625;96363.58;;;;
2022/07/09 01:24:52;;;;;;;4.5;2.95;;;;;;;11.25;67.0625;96363.58;;;;
2022/07/09 01:25:55;;;;;;;6.15;3.05;;;;;;;11.2;67.36914;96347.45;;;;
2022/07/09 01:26:56;;;;;;;6.15;3.05;;;;;;;11.2;67.36914;96347.45;;;;
2022/07/09 01:27:57;;;;;;;6.15;3.05;;;;;;;11.2;67.36914;96347.45;;;;
2022/07/09 01:28:57;;;;;;;6.15;3.05;;;;;;;11.2;67.36914;96347.45;;;;
2022/07/09 01:29:58;;;;;;;6.15;3.05;;;;;;;11.2;67.36914;96347.45;;;;
2022/07/09 01:30:59;;;;;;;6.15;3.05;;;;;;;11.2;67.36914;96347.45;;;;
2022/07/09 01:32:00;;;;;;;6.15;3.05;;;;;;;11.2;67.36914;96347.45;;;;
2022/07/09 01:33:00;;;;;;;6.15;3.05;;;;;;;11.2;67.36914;96347.45;;;;
2022/07/09 01:34:01;;;;;;;6.15;3.05;;;;;;;11.2;67.36914;96347.45;;;;
2022/07/09 01:35:01;;;;;;;6.15;3.05;;;;;;;11.2;67.36914;96347.45;;;;
2022/07/09 01:36:03;;;;;;;6.15;3.05;;;;;;;11.2;67.36914;96347.45;;;;
2022/07/09 01:37:03;;;;;;;4.3;2.9;;;;;;;11.07;67.65039;96351.7;;;;
2022/07/09 01:38:04;;;;;;;4.3;2.9;;;;;;;11.07;67.65039;96351.7;;;;
2022/07/09 01:39:05;;;;;;;4.3;2.9;;;;;;;11.07;67.65039;96351.7;;;;
2022/07/09 01:40:05;;;;;;;4.3;2.9;;;;;;;11.07;67.65039;96351.7;;;;
2022/07/09 01:41:07;;;;;;;4.3;2.9;;;;;;;11.07;67.65039;96351.7;;;;
2022/07/09 01:42:08;;;;;;;4.3;2.9;;;;;;;11.07;67.65039;96351.7;;;;
2022/07/09 01:43:08;;;;;;;4.3;2.9;;;;;;;11.07;67.65039;96351.7;;;;
2022/07/09 01:44:09;;;;;;;4.3;2.9;;;;;;;11.07;67.65039;96351.7;;;;
2022/07/09 01:45:09;;;;;;;4.3;2.9;;;;;;;11.07;67.65039;96351.7;;;;
2022/07/09 01:46:10;;;;;;;4.3;2.9;;;;;;;11.07;67.65039;96351.7;;;;
2022/07/09 01:47:11;;;;;;;4.25;3.1;;;;;;;11.01;67.92285;96344.53;;;;
2022/07/09 01:48:13;;;;;;;4.25;3.1;;;;;;;11.01;67.92285;96344.53;;;;
2022/07/09 01:49:13;;;;;;;4.25;3.1;;;;;;;11.01;67.92285;96344.53;;;;
2022/07/09 01:50:14;;;;;;;4.25;3.1;;;;;;;11.01;67.92285;96344.53;;;;
2022/07/09 01:51:15;;;;;;;4.25;3.1;;;;;;;11.01;67.92285;96344.53;;;;
2022/07/09 01:52:15;;;;;;;4.25;3.1;;;;;;;11.01;67.92285;96344.53;;;;
2022/07/09 01:53:16;;;;;;;4.25;3.1;;;;;;;11.01;67.92285;96344.53;;;;
2022/07/09 01:54:17;;;;;;;4.25;3.1;;;;;;;11.01;67.92285;96344.53;;;;
2022/07/09 01:55:17;;;;;;;4.25;3.1;;;;;;;11.01;67.92285;96344.53;;;;
2022/07/09 01:56:18;;;;;;;4.25;3.1;;;;;;;11.01;67.92285;96344.53;;;;
2022/07/09 01:57:18;;;;;;;4.25;3.1;;;;;;;11.01;67.92285;96344.53;;;;
2022/07/09 01:58:19;;;;;;;5.550001;3.1;;;;;;;10.91;68.20703;96329.57;;;;
2022/07/09 01:59:19;;;;;;;5.550001;3.1;;;;;;;10.91;68.20703;96329.57;;;;
2022/07/09 02:00:20;;;;;;;5.550001;3.1;;;;;;;10.91;68.20703;96329.57;;;;
2022/07/09 02:01:20;;;;;;;5.550001;3.1;;;;;;;10.91;68.20703;96329.57;;;;
2022/07/09 02:02:21;;;;;;;5.550001;3.1;;;;;;;10.91;68.20703;96329.57;;;;
2022/07/09 02:03:22;;;;;;;5.550001;3.1;;;;;;;10.91;68.20703;96329.57;;;;
2022/07/09 02:04:23;;;;;;;5.550001;3.1;;;;;;;10.91;68.20703;96329.57;;;;
2022/07/09 02:05:23;;;;;;;5.550001;3.1;;;;;;;10.91;68.20703;96329.57;;;;
2022/07/09 02:06:24;;;;;;;5.550001;3.1;;;;;;;10.91;68.20703;96329.57;;;;
2022/07/09 02:07:25;;;;;;;5.550001;3.1;;;;;;;10.91;68.20703;96329.57;;;;
2022/07/09 02:08:26;;;;;;;4.7;3.15;;;;;;;10.94;68.43945;96320.73;;;;
2022/07/09 02:09:26;;;;;;;4.7;3.15;;;;;;;10.94;68.43945;96320.73;;;;
2022/07/09 02:10:27;;;;;;;4.7;3.15;;;;;;;10.94;68.43945;96320.73;;;;
2022/07/09 02:11:27;;;;;;;4.7;3.15;;;;;;;10.94;68.43945;96320.73;;;;
2022/07/09 02:12:28;;;;;;;4.7;3.15;;;;;;;10.94;68.43945;96320.73;;;;
2022/07/09 02:13:28;;;;;;;4.7;3.15;;;;;;;10.94;68.43945;96320.73;;;;
2022/07/09 02:14:29;;;;;;;4.7;3.15;;;;;;;10.94;68.43945;96320.73;;;;
2022/07/09 02:15:29;;;;;;;4.7;3.15;;;;;;;10.94;68.43945;96320.73;;;;
2022/07/09 02:16:30;;;;;;;4.7;3.15;;;;;;;10.94;68.43945;96320.73;;;;
2022/07/09 02:17:30;;;;;;;4.7;3.15;;;;;;;10.94;68.43945;96320.73;;;;
2022/07/09 02:18:31;;;;;;;4.7;3.15;;;;;;;10.94;68.43945;96320.73;;;;
2022/07/09 02:19:31;;;;;;;4.75;3.05;;;;;;;10.93;68.66406;96318.69;;;;
2022/07/09 02:20:32;;;;;;;4.75;3.05;;;;;;;10.93;68.66406;96318.69;;;;
2022/07/09 02:21:33;;;;;;;4.75;3.05;;;;;;;10.93;68.66406;96318.69;;;;
2022/07/09 02:22:33;;;;;;;4.75;3.05;;;;;;;10.93;68.66406;96318.69;;;;
2022/07/09 02:23:34;;;;;;;4.75;3.05;;;;;;;10.93;68.66406;96318.69;;;;
2022/07/09 02:24:35;;;;;;;4.75;3.05;;;;;;;10.93;68.66406;96318.69;;;;
2022/07/09 02:25:35;;;;;;;4.75;3.05;;;;;;;10.93;68.66406;96318.69;;;;
2022/07/09 02:26:36;;;;;;;4.75;3.05;;;;;;;10.93;68.66406;96318.69;;;;
2022/07/09 02:27:36;;;;;;;4.75;3.05;;;;;;;10.93;68.66406;96318.69;;;;
2022/07/09 02:28:37;;;;;;;4.75;3.05;;;;;;;10.93;68.66406;96318.69;;;;
2022/07/09 02:29:37;;;;;;;6.350001;3.299999;;;;;;;11.18;68.71387;96310.29;;;;
2022/07/09 02:30:38;;;;;;;6.350001;3.299999;;;;;;;11.18;68.71387;96310.29;;;;
2022/07/09 02:31:38;;;;;;;6.350001;3.299999;;;;;;;11.18;68.71387;96310.29;;;;
2022/07/09 02:32:39;;;;;;;6.350001;3.299999;;;;;;;11.18;68.71387;96310.29;;;;
2022/07/09 02:33:39;;;;;;;6.350001;3.299999;;;;;;;11.18;68.71387;96310.29;;;;
2022/07/09 02:34:40;;;;;;;6.350001;3.299999;;;;;;;11.18;68.71387;96310.29;;;;
2022/07/09 02:35:40;;;;;;;6.350001;3.299999;;;;;;;11.18;68.71387;96310.29;;;;
2022/07/09 02:36:41;;;;;;;6.350001;3.299999;;;;;;;11.18;68.71387;96310.29;;;;
2022/07/09 02:37:42;;;;;;;6.350001;3.299999;;;;;;;11.18;68.71387;96310.29;;;;
2022/07/09 02:38:42;;;;;;;6.350001;3.299999;;;;;;;11.18;68.71387;96310.29;;;;
2022/07/09 02:39:42;;;;;;;6.350001;3.299999;;;;;;;11.18;68.71387;96310.29;;;;
2022/07/09 02:40:43;;;;;;;5.949999;3.9;;;;;;;11.42;68.71973;96302.35;;;;
2022/07/09 02:41:43;;;;;;;5.949999;3.9;;;;;;;11.42;68.71973;96302.35;;;;
2022/07/09 02:42:44;;;;;;;5.949999;3.9;;;;;;;11.42;68.71973;96302.35;;;;
2022/07/09 02:43:45;;;;;;;5.949999;3.9;;;;;;;11.42;68.71973;96302.35;;;;
2022/07/09 02:44:46;;;;;;;5.949999;3.9;;;;;;;11.42;68.71973;96302.35;;;;
2022/07/09 02:45:46;;;;;;;5.949999;3.9;;;;;;;11.42;68.71973;96302.35;;;;
2022/07/09 02:46:47;;;;;;;5.949999;3.9;;;;;;;11.42;68.71973;96302.35;;;;
2022/07/09 02:47:48;;;;;;;5.949999;3.9;;;;;;;11.42;68.71973;96302.35;;;;
2022/07/09 02:48:48;;;;;;;5.949999;3.9;;;;;;;11.42;68.71973;96302.35;;;;
2022/07/09 02:49:49;;;;;;;5.949999;3.9;;;;;;;11.42;68.71973;96302.35;;;;
2022/07/09 02:50:49;;;;;;;5.949999;3.9;;;;;;;11.42;68.71973;96302.35;;;;
2022/07/09 02:51:51;;;;;;;4.55;3.3;;;;;;;11.77;68.80664;96293.98;;;;
2022/07/09 02:52:52;;;;;;;4.55;3.3;;;;;;;11.77;68.80664;96293.98;;;;
2022/07/09 02:53:52;;;;;;;4.55;3.3;;;;;;;11.77;68.80664;96293.98;;;;
2022/07/09 02:54:53;;;;;;;4.55;3.3;;;;;;;11.77;68.80664;96293.98;;;;
2022/07/09 02:55:53;;;;;;;4.55;3.3;;;;;;;11.77;68.80664;96293.98;;;;
2022/07/09 02:56:54;;;;;;;4.55;3.3;;;;;;;11.77;68.80664;96293.98;;;;
2022/07/09 02:57:54;;;;;;;4.55;3.3;;;;;;;11.77;68.80664;96293.98;;;;
2022/07/09 02:58:55;;;;;;;4.55;3.3;;;;;;;11.77;68.80664;96293.98;;;;
2022/07/09 02:59:55;;;;;;;4.55;3.3;;;;;;;11.77;68.80664;96293.98;;;;
2022/07/09 03:00:56;;;;;;;4.55;3.3;;;;;;;11.77;68.80664;96293.98;;;;
2022/07/09 03:01:56;;;;;;;5.2;3.45;;;;;;;12.05;68.85059;96284.97;;;;
2022/07/09 03:02:57;;;;;;;5.2;3.45;;;;;;;12.05;68.85059;96284.97;;;;
2022/07/09 03:03:57;;;;;;;5.2;3.45;;;;;;;12.05;68.85059;96284.97;;;;
2022/07/09 03:04:58;;;;;;;5.2;3.45;;;;;;;12.05;68.85059;96284.97;;;;
2022/07/09 03:05:58;;;;;;;5.2;3.45;;;;;;;12.05;68.85059;96284.97;;;;
2022/07/09 03:06:59;;;;;;;5.2;3.45;;;;;;;12.05;68.85059;96284.97;;;;
2022/07/09 03:07:59;;;;;;;5.2;3.45;;;;;;;12.05;68.85059;96284.97;;;;
2022/07/09 03:09:00;;;;;;;5.2;3.45;;;;;;;12.05;68.85059;96284.97;;;;
2022/07/09 03:10:01;;;;;;;5.2;3.45;;;;;;;12.05;68.85059;96284.97;;;;
2022/07/09 03:11:02;;;;;;;5.2;3.45;;;;;;;12.05;68.85059;96284.97;;;;
2022/07/09 03:12:02;;;;;;;5.2;3.45;;;;;;;12.05;68.85059;96284.97;;;;
2022/07/09 03:13:04;;;;;;;6.599999;3.35;;;;;;;12.41;68.91699;96283.81;;;;
2022/07/09 03:14:04;;;;;;;6.599999;3.35;;;;;;;12.41;68.91699;96283.81;;;;
2022/07/09 03:15:05;;;;;;;6.599999;3.35;;;;;;;12.41;68.91699;96283.81;;;;
2022/07/09 03:16:07;;;;;;;6.599999;3.35;;;;;;;12.41;68.91699;96283.81;;;;
2022/07/09 03:17:07;;;;;;;6.599999;3.35;;;;;;;12.41;68.91699;96283.81;;;;
2022/07/09 03:18:08;;;;;;;6.599999;3.35;;;;;;;12.41;68.91699;96283.81;;;;
2022/07/09 03:19:08;;;;;;;6.599999;3.35;;;;;;;12.41;68.91699;96283.81;;;;
2022/07/09 03:20:09;;;;;;;6.599999;3.35;;;;;;;12.41;68.91699;96283.81;;;;
2022/07/09 03:21:11;;;;;;;6.599999;3.35;;;;;;;12.41;68.91699;96283.81;;;;
2022/07/09 03:22:12;;;;;;;6.599999;3.35;;;;;;;12.41;68.91699;96283.81;;;;
2022/07/09 03:23:13;;;;;;;4.75;3.45;;;;;;;12.62;69.00391;96280.19;;;;
2022/07/09 03:24:13;;;;;;;4.75;3.45;;;;;;;12.62;69.00391;96280.19;;;;
2022/07/09 03:25:13;;;;;;;4.75;3.45;;;;;;;12.62;69.00391;96280.19;;;;
2022/07/09 03:26:14;;;;;;;4.75;3.45;;;;;;;12.62;69.00391;96280.19;;;;
2022/07/09 03:27:14;;;;;;;4.75;3.45;;;;;;;12.62;69.00391;96280.19;;;;
2022/07/09 03:28:15;;;;;;;4.75;3.45;;;;;;;12.62;69.00391;96280.19;;;;
2022/07/09 03:29:16;;;;;;;4.75;3.45;;;;;;;12.62;69.00391;96280.19;;;;
2022/07/09 03:30:16;;;;;;;4.75;3.45;;;;;;;12.62;69.00391;96280.19;;;;
2022/07/09 03:31:17;;;;;;;4.75;3.45;;;;;;;12.62;69.00391;96280.19;;;;
2022/07/09 03:32:17;;;;;;;4.75;3.45;;;;;;;12.62;69.00391;96280.19;;;;
2022/07/09 03:33:17;;;;;;;4.75;3.45;;;;;;;12.62;69.00391;96280.19;;;;
2022/07/09 03:34:18;;;;;;;5.550001;3.6;;;;;;;12.86;69.29102;96295.14;;;;
2022/07/09 03:35:18;;;;;;;5.550001;3.6;;;;;;;12.86;69.29102;96295.14;;;;
2022/07/09 03:36:19;;;;;;;5.550001;3.6;;;;;;;12.86;69.29102;96295.14;;;;
2022/07/09 03:37:20;;;;;;;5.550001;3.6;;;;;;;12.86;69.29102;96295.14;;;;
2022/07/09 03:38:20;;;;;;;5.550001;3.6;;;;;;;12.86;69.29102;96295.14;;;;
2022/07/09 03:39:21;;;;;;;5.550001;3.6;;;;;;;12.86;69.29102;96295.14;;;;
2022/07/09 03:40:22;;;;;;;5.550001;3.6;;;;;;;12.86;69.29102;96295.14;;;;
2022/07/09 03:41:22;;;;;;;5.550001;3.6;;;;;;;12.86;69.29102;96295.14;;;;
2022/07/09 03:42:23;;;;;;;5.550001;3.6;;;;;;;12.86;69.29102;96295.14;;;;
2022/07/09 03:43:23;;;;;;;5.550001;3.6;;;;;;;12.86;69.29102;96295.14;;;;
2022/07/09 03:44:24;;;;;;;4.35;3.35;;;;;;;13.01;69.4668;96289.6;;;;
2022/07/09 03:45:24;;;;;;;4.35;3.35;;;;;;;13.01;69.4668;96289.6;;;;
2022/07/09 03:46:25;;;;;;;4.35;3.35;;;;;;;13.01;69.4668;96289.6;;;;
2022/07/09 03:47:25;;;;;;;4.35;3.35;;;;;;;13.01;69.4668;96289.6;;;;
2022/07/09 03:48:26;;;;;;;4.35;3.35;;;;;;;13.01;69.4668;96289.6;;;;
2022/07/09 03:49:26;;;;;;;4.35;3.35;;;;;;;13.01;69.4668;96289.6;;;;
2022/07/09 03:50:27;;;;;;;4.35;3.35;;;;;;;13.01;69.4668;96289.6;;;;
2022/07/09 03:51:27;;;;;;;4.35;3.35;;;;;;;13.01;69.4668;96289.6;;;;
2022/07/09 03:52:28;;;;;;;4.35;3.35;;;;;;;13.01;69.4668;96289.6;;;;
2022/07/09 03:53:28;;;;;;;4.35;3.35;;;;;;;13.01;69.4668;96289.6;;;;
2022/07/09 03:54:29;;;;;;;4.35;3.35;;;;;;;13.01;69.4668;96289.6;;;;
2022/07/09 03:55:29;;;;;;;5.499999;3.65;;;;;;;13.24;69.73145;96298.8;;;;
2022/07/09 03:56:30;;;;;;;5.499999;3.65;;;;;;;13.24;69.73145;96298.8;;;;
2022/07/09 03:57:30;;;;;;;5.499999;3.65;;;;;;;13.24;69.73145;96298.8;;;;
2022/07/09 03:58:31;;;;;;;5.499999;3.65;;;;;;;13.24;69.73145;96298.8;;;;
2022/07/09 03:59:31;;;;;;;5.499999;3.65;;;;;;;13.24;69.73145;96298.8;;;;
2022/07/09 04:00:32;;;;;;;5.499999;3.65;;;;;;;13.24;69.73145;96298.8;;;;
2022/07/09 04:01:32;;;;;;;5.499999;3.65;;;;;;;13.24;69.73145;96298.8;;;;
2022/07/09 04:02:33;;;;;;;5.499999;3.65;;;;;;;13.24;69.73145;96298.8;;;;
2022/07/09 04:03:34;;;;;;;5.499999;3.65;;;;;;;13.24;69.73145;96298.8;;;;
2022/07/09 04:04:34;;;;;;;5.499999;3.65;;;;;;;13.24;69.73145;96298.8;;;;
2022/07/09 04:05:35;;;;;;;5.499999;3.65;;;;;;;13.24;69.73145;96298.8;;;;
2022/07/09 04:06:35;;;;;;;5.600001;4.1;;;;;;;13.48;71.66602;96302.29;;;;
2022/07/09 04:07:36;;;;;;;5.600001;4.1;;;;;;;13.48;71.66602;96302.29;;;;
2022/07/09 04:08:36;;;;;;;5.600001;4.1;;;;;;;13.48;71.66602;96302.29;;;;
2022/07/09 04:09:37;;;;;;;5.600001;4.1;;;;;;;13.48;71.66602;96302.29;;;;
2022/07/09 04:10:37;;;;;;;5.600001;4.1;;;;;;;13.48;71.66602;96302.29;;;;
2022/07/09 04:11:38;;;;;;;5.600001;4.1;;;;;;;13.48;71.66602;96302.29;;;;
2022/07/09 04:12:38;;;;;;;5.600001;4.1;;;;;;;13.48;71.66602;96302.29;;;;
2022/07/09 04:13:38;;;;;;;5.600001;4.1;;;;;;;13.48;71.66602;96302.29;;;;
2022/07/09 04:14:39;;;;;;;5.600001;4.1;;;;;;;13.48;71.66602;96302.29;;;;
2022/07/09 04:15:40;;;;;;;5.600001;4.1;;;;;;;13.48;71.66602;96302.29;;;;
2022/07/09 04:16:40;;;;;;;5.600001;4.1;;;;;;;13.48;71.66602;96302.29;;;;
2022/07/09 04:17:41;;;;;;;4.15;3.6;;;;;;;13.8;70.89551;96311.17;;;;
2022/07/09 04:18:44;;;;;;;4.15;3.6;;;;;;;13.8;70.89551;96311.17;;;;
2022/07/09 04:19:44;;;;;;;4.15;3.6;;;;;;;13.8;70.89551;96311.17;;;;
2022/07/09 04:20:45;;;;;;;4.15;3.6;;;;;;;13.8;70.89551;96311.17;;;;
2022/07/09 04:21:45;;;;;;;4.15;3.6;;;;;;;13.8;70.89551;96311.17;;;;
2022/07/09 04:22:46;;;;;;;4.15;3.6;;;;;;;13.8;70.89551;96311.17;;;;
2022/07/09 04:23:46;;;;;;;4.15;3.6;;;;;;;13.8;70.89551;96311.17;;;;
2022/07/09 04:24:47;;;;;;;4.15;3.6;;;;;;;13.8;70.89551;96311.17;;;;
2022/07/09 04:25:50;;;;;;;4.15;3.6;;;;;;;13.8;70.89551;96311.17;;;;
2022/07/09 04:26:50;;;;;;;4.15;3.6;;;;;;;13.8;70.89551;96311.17;;;;
2022/07/09 04:27:51;;;;;;;5.95;3.65;;;;;;;13.91;70.79199;96313.19;;;;
2022/07/09 04:28:51;;;;;;;5.95;3.65;;;;;;;13.91;70.79199;96313.19;;;;
2022/07/09 04:29:52;;;;;;;5.95;3.65;;;;;;;13.91;70.79199;96313.19;;;;
2022/07/09 04:30:52;;;;;;;5.95;3.65;;;;;;;13.91;70.79199;96313.19;;;;
2022/07/09 04:31:53;;;;;;;5.95;3.65;;;;;;;13.91;70.79199;96313.19;;;;
2022/07/09 04:32:54;;;;;;;5.95;3.65;;;;;;;13.91;70.79199;96313.19;;;;
2022/07/09 04:33:54;;;;;;;5.95;3.65;;;;;;;13.91;70.79199;96313.19;;;;
2022/07/09 04:34:55;;;;;;;5.95;3.65;;;;;;;13.91;70.79199;96313.19;;;;
2022/07/09 04:35:56;;;;;;;5.95;3.65;;;;;;;13.91;70.79199;96313.19;;;;
2022/07/09 04:36:56;;;;;;;5.95;3.65;;;;;;;13.91;70.79199;96313.19;;;;
2022/07/09 04:37:56;;;;;;;5.95;3.65;;;;;;;13.91;70.79199;96313.19;;;;
2022/07/09 04:38:57;;;;;;;6;4;;;;;;;14.1;70.8877;96312.86;;;;
2022/07/09 04:39:57;;;;;;;6;4;;;;;;;14.1;70.8877;96312.86;;;;
2022/07/09 04:40:58;;;;;;;6;4;;;;;;;14.1;70.8877;96312.86;;;;
2022/07/09 04:41:58;;;;;;;6;4;;;;;;;14.1;70.8877;96312.86;;;;
2022/07/09 04:42:59;;;;;;;6;4;;;;;;;14.1;70.8877;96312.86;;;;
2022/07/09 04:43:59;;;;;;;6;4;;;;;;;14.1;70.8877;96312.86;;;;
2022/07/09 04:45:00;;;;;;;6;4;;;;;;;14.1;70.8877;96312.86;;;;
2022/07/09 04:46:00;;;;;;;6;4;;;;;;;14.1;70.8877;96312.86;;;;
2022/07/09 04:47:01;;;;;;;6;4;;;;;;;14.1;70.8877;96312.86;;;;
2022/07/09 04:48:02;;;;;;;6;4;;;;;;;14.1;70.8877;96312.86;;;;
2022/07/09 04:49:03;;;;;;;5.65;3.95;;;;;;;14.32;70.88086;96315.58;;;;
2022/07/09 04:50:04;;;;;;;5.65;3.95;;;;;;;14.32;70.88086;96315.58;;;;
2022/07/09 04:51:05;;;;;;;5.65;3.95;;;;;;;14.32;70.88086;96315.58;;;;
2022/07/09 04:52:05;;;;;;;5.65;3.95;;;;;;;14.32;70.88086;96315.58;;;;
2022/07/09 04:53:06;;;;;;;5.65;3.95;;;;;;;14.32;70.88086;96315.58;;;;
2022/07/09 04:54:07;;;;;;;5.65;3.95;;;;;;;14.32;70.88086;96315.58;;;;
2022/07/09 04:55:09;;;;;;;5.65;3.95;;;;;;;14.32;70.88086;96315.58;;;;
2022/07/09 04:56:09;;;;;;;5.65;3.95;;;;;;;14.32;70.88086;96315.58;;;;
2022/07/09 04:57:10;;;;;;;5.65;3.95;;;;;;;14.32;70.88086;96315.58;;;;
2022/07/09 04:58:10;;;;;;;5.65;3.95;;;;;;;14.32;70.88086;96315.58;;;;
2022/07/09 04:59:11;;;;;;;5.65;3.95;;;;;;;14.32;70.88086;96315.58;;;;
2022/07/09 05:00:11;;;;;;;5.85;3.9;;;;;;;14.73;70.8584;96311.22;;;;
2022/07/09 05:01:13;;;;;;;5.85;3.9;;;;;;;14.73;70.8584;96311.22;;;;
2022/07/09 05:02:14;;;;;;;5.85;3.9;;;;;;;14.73;70.8584;96311.22;;;;
2022/07/09 05:03:14;;;;;;;5.85;3.9;;;;;;;14.73;70.8584;96311.22;;;;
2022/07/09 05:04:15;;;;;;;5.85;3.9;;;;;;;14.73;70.8584;96311.22;;;;
2022/07/09 05:05:16;;;;;;;5.85;3.9;;;;;;;14.73;70.8584;96311.22;;;;
2022/07/09 05:06:16;;;;;;;5.85;3.9;;;;;;;14.73;70.8584;96311.22;;;;
2022/07/09 05:07:17;;;;;;;5.85;3.9;;;;;;;14.73;70.8584;96311.22;;;;
2022/07/09 05:08:18;;;;;;;5.85;3.9;;;;;;;14.73;70.8584;96311.22;;;;
2022/07/09 05:09:19;;;;;;;5.85;3.9;;;;;;;14.73;70.8584;96311.22;;;;
2022/07/09 05:10:19;;;;;;;5.85;3.9;;;;;;;14.73;70.8584;96311.22;;;;
2022/07/09 05:11:20;;;;;;;5.85;3.9;;;;;;;14.73;70.8584;96311.22;;;;
2022/07/09 05:12:20;;;;;;;5.85;3.9;;;;;;;14.73;70.8584;96311.22;;;;
2022/07/09 05:13:21;;;;;;;5.85;3.9;;;;;;;14.73;70.8584;96311.22;;;;
2022/07/09 05:14:21;;;;;;;5.85;3.9;;;;;;;14.73;70.8584;96311.22;;;;
2022/07/09 05:15:22;;;;;;;5.85;3.9;;;;;;;14.73;70.8584;96311.22;;;;
2022/07/09 05:16:23;;;;;;;5.85;3.9;;;;;;;14.73;70.8584;96311.22;;;;
2022/07/09 05:17:23;;;;;;;5.85;3.9;;;;;;;14.73;70.8584;96311.22;;;;
2022/07/09 05:18:24;;;;;;;5.85;3.9;;;;;;;14.73;70.8584;96311.22;;;;
2022/07/09 05:19:25;;;;;;;5.85;3.9;;;;;;;14.73;70.8584;96311.22;;;;
2022/07/09 05:20:26;;;;;;;5.85;3.9;;;;;;;14.73;70.8584;96311.22;;;;
2022/07/09 05:21:26;;;;;;;4.400001;3.6;;;;;;;15.39;70.54004;96311.57;;;;
2022/07/09 05:22:27;;;;;;;4.400001;3.6;;;;;;;15.39;70.54004;96311.57;;;;
2022/07/09 05:23:27;;;;;;;4.400001;3.6;;;;;;;15.39;70.54004;96311.57;;;;
2022/07/09 05:24:28;;;;;;;4.400001;3.6;;;;;;;15.39;70.54004;96311.57;;;;
2022/07/09 05:25:28;;;;;;;4.400001;3.6;;;;;;;15.39;70.54004;96311.57;;;;
2022/07/09 05:26:29;;;;;;;4.400001;3.6;;;;;;;15.39;70.54004;96311.57;;;;
2022/07/09 05:27:30;;;;;;;4.400001;3.6;;;;;;;15.39;70.54004;96311.57;;;;
2022/07/09 05:28:31;;;;;;;4.400001;3.6;;;;;;;15.39;70.54004;96311.57;;;;
2022/07/09 05:29:32;;;;;;;4.400001;3.6;;;;;;;15.39;70.54004;96311.57;;;;
2022/07/09 05:30:36;;;;;;;4.400001;3.6;;;;;;;15.39;70.54004;96311.57;;;;
2022/07/09 05:31:37;;;;;;;4.149999;3.5;;;;;;;15.78;70.28711;96311.67;;;;
2022/07/09 05:32:38;;;;;;;4.149999;3.5;;;;;;;15.78;70.28711;96311.67;;;;
2022/07/09 05:33:38;;;;;;;4.149999;3.5;;;;;;;15.78;70.28711;96311.67;;;;
2022/07/09 05:34:39;;;;;;;4.149999;3.5;;;;;;;15.78;70.28711;96311.67;;;;
2022/07/09 05:35:40;;;;;;;4.149999;3.5;;;;;;;15.78;70.28711;96311.67;;;;
2022/07/09 05:36:40;;;;;;;4.149999;3.5;;;;;;;15.78;70.28711;96311.67;;;;
2022/07/09 05:37:41;;;;;;;4.149999;3.5;;;;;;;15.78;70.28711;96311.67;;;;
2022/07/09 05:38:41;;;;;;;4.149999;3.5;;;;;;;15.78;70.28711;96311.67;;;;
2022/07/09 05:39:42;;;;;;;4.149999;3.5;;;;;;;15.78;70.28711;96311.67;;;;
2022/07/09 05:40:42;;;;;;;4.149999;3.5;;;;;;;15.78;70.28711;96311.67;;;;
2022/07/09 05:41:43;;;;;;;4.149999;3.5;;;;;;;15.78;70.28711;96311.67;;;;
2022/07/09 05:42:44;;;;;;;4.149999;3.5;;;;;;;15.78;70.28711;96311.67;;;;